Time;durP1;ratioP1;P1;durP2;ratioP2;P2;SDS_P1;SDS_P2;PMS_P1;PMS_P2;Temp;Humidity;BMP_temperature;BMP_pressure;BME280_temperature;BME280_humidity;BME280_pressure;Samples;Min_cycle;Max_cycle;Signal;HPM_P1;HPM_P2
2022/06/10 03:54:18;;;;;;;;;;;;;;;16.03;60.00;97507.91;4214963;27;10203;-65
2022/06/10 03:56:22;;;;;;;;;;;;;;;16.30;59.50;97501.41;4208699;28;5639;-65
2022/06/10 03:58:25;;;;;;;;;;;;;;;16.52;59.16;97503.78;4212394;28;5783;-65
2022/06/10 04:00:29;;;;;;;;;;;;;;;16.68;58.99;97500.66;4213715;28;5793;-66
2022/06/10 04:02:32;;;;;;;;;;;;;;;16.82;58.75;97507.56;4213277;28;5640;-64
2022/06/10 04:04:35;;;;;;;;;;;;;;;16.92;58.55;97500.94;4214781;28;5635;-64
2022/06/10 04:06:38;;;;;;;;;;;;;;;16.97;58.41;97496.56;4214724;28;5722;-64
2022/06/10 04:09:00;;;;;;;;;;;;;;;17.01;58.51;97505.78;4215071;28;5627;-64
2022/06/10 04:11:08;;;;;;;;;;;;;;;17.07;58.19;97504.09;4213821;28;5718;-65
2022/06/10 04:13:11;;;;;;;;;;;;;;;17.08;57.95;97509.22;4213912;28;5101;-64
2022/06/10 04:15:15;;;;;;;;;;;;;;;17.13;57.90;97504.06;4214354;28;5707;-64
2022/06/10 04:17:18;;;;;;;;;;;;;;;17.18;57.78;97501.53;4214448;28;5726;-64
2022/06/10 04:19:21;;;;;;;;;;;;;;;17.24;57.66;97507.88;4215008;28;5061;-64
2022/06/10 04:21:24;;;;;;;;;;;;;;;17.30;57.64;97508.84;4214661;28;5631;-65
2022/06/10 04:23:27;;;;;;;;;;;;;;;17.31;57.47;97505.94;4214792;28;5871;-65
2022/06/10 04:25:32;;;;;;;;;;;;;;;17.30;57.27;97504.31;4214886;28;6302;-64
2022/06/10 04:27:36;;;;;;;;;;;;;;;17.28;57.43;97511.75;4214324;28;5624;-64
2022/06/10 04:29:39;;;;;;;;;;;;;;;17.25;57.49;97512.19;4213801;28;5627;-64
2022/06/10 04:31:42;;;;;;;;;;;;;;;17.32;57.21;97517.47;4213502;28;5706;-64
2022/06/10 04:33:45;;;;;;;;;;;;;;;17.35;57.27;97517.03;4211574;28;5635;-64
2022/06/10 04:35:51;;;;;;;;;;;;;;;17.36;57.33;97516.00;4210136;28;5710;-64
2022/06/10 04:37:55;;;;;;;;;;;;;;;17.38;57.15;97522.75;4218233;28;5631;-64
2022/06/10 04:40:05;;;;;;;;;;;;;;;17.38;56.99;97522.75;4193209;28;6945;-64
2022/06/10 04:42:08;;;;;;;;;;;;;;;17.40;57.09;97514.53;4213030;28;5722;-64
2022/06/10 04:44:13;;;;;;;;;;;;;;;17.43;56.99;97514.91;4203842;28;5640;-65
2022/06/10 04:46:24;;;;;;;;;;;;;;;17.41;56.91;97514.31;4194566;28;5654;-66
2022/06/10 04:48:28;;;;;;;;;;;;;;;17.46;56.83;97517.16;4211911;28;5730;-65
2022/06/10 04:50:31;;;;;;;;;;;;;;;17.49;56.83;97515.88;4213843;28;5632;-65
2022/06/10 04:52:35;;;;;;;;;;;;;;;17.49;56.75;97512.41;4212495;28;5636;-64
2022/06/10 04:54:38;;;;;;;;;;;;;;;17.52;56.57;97512.78;4204556;28;5660;-65
2022/06/10 04:56:41;;;;;;;;;;;;;;;17.56;56.49;97516.66;4201732;28;5632;-64
2022/06/10 04:58:44;;;;;;;;;;;;;;;17.60;56.33;97514.34;4201856;28;5826;-65
2022/06/10 05:00:49;;;;;;;;;;;;;;;17.63;56.25;97517.41;4199716;28;5899;-66
2022/06/10 05:02:53;;;;;;;;;;;;;;;17.66;56.20;97516.13;4201473;28;5631;-65
2022/06/10 05:04:56;;;;;;;;;;;;;;;17.67;56.24;97515.94;4192814;28;5623;-65
2022/06/10 05:07:00;;;;;;;;;;;;;;;17.69;55.84;97513.06;4200734;28;5631;-65
2022/06/10 05:09:03;;;;;;;;;;;;;;;17.72;55.89;97512.63;4196198;28;5640;-65
2022/06/10 05:11:07;;;;;;;;;;;;;;;17.74;55.83;97513.22;4200794;28;6406;-65
2022/06/10 05:13:10;;;;;;;;;;;;;;;17.77;55.68;97519.97;4186114;28;5642;-65
2022/06/10 05:15:14;;;;;;;;;;;;;;;17.81;55.46;97515.84;4198488;28;5620;-71
2022/06/10 05:17:18;;;;;;;;;;;;;;;17.77;55.51;97519.97;4201935;28;5770;-70
2022/06/10 05:19:21;;;;;;;;;;;;;;;17.78;55.47;97516.25;4200401;28;5635;-69
2022/06/10 05:21:24;;;;;;;;;;;;;;;17.82;55.11;97520.97;4200971;28;5643;-70
2022/06/10 05:23:27;;;;;;;;;;;;;;;17.83;55.07;97525.25;4182584;28;5866;-71
2022/06/10 05:25:30;;;;;;;;;;;;;;;17.84;55.11;97532.25;4202277;28;5667;-71
2022/06/10 05:27:33;;;;;;;;;;;;;;;17.84;55.10;97531.44;4202435;28;5631;-70
2022/06/10 05:29:37;;;;;;;;;;;;;;;17.88;55.04;97528.06;4202076;28;5632;-71
2022/06/10 05:31:39;;;;;;;;;;;;;;;17.93;54.90;97532.78;4200746;28;5807;-71
2022/06/10 05:36:05;;;;;;;;;;;;;;;18.17;54.32;97531.91;4202444;28;5726;-71
2022/06/10 05:38:09;;;;;;;;;;;;;;;18.36;54.23;97535.38;4193638;28;5686;-71
2022/06/10 05:40:13;;;;;;;;;;;;;;;18.57;53.94;97537.59;4185592;28;5646;-71
2022/06/10 05:42:16;;;;;;;;;;;;;;;18.78;53.88;97536.28;4185290;28;5670;-70
2022/06/10 05:44:19;;;;;;;;;;;;;;;18.91;53.46;97532.63;4187850;28;5638;-71
2022/06/10 05:46:22;;;;;;;;;;;;;;;19.07;53.27;97542.69;4197056;28;5746;-71
2022/06/10 05:48:26;;;;;;;;;;;;;;;19.30;53.24;97533.91;4183083;28;5722;-70
2022/06/10 05:50:34;;;;;;;;;;;;;;;19.46;52.87;97537.75;4189941;28;5729;-71
2022/06/10 05:52:39;;;;;;;;;;;;;;;19.58;53.01;97538.59;4200583;28;5636;-71
2022/06/10 05:54:44;;;;;;;;;;;;;;;19.70;52.88;97536.75;4201813;28;5738;-72
2022/06/10 05:56:47;;;;;;;;;;;;;;;19.83;52.63;97548.31;4201007;28;5748;-71
2022/06/10 05:58:50;;;;;;;;;;;;;;;19.92;52.41;97549.56;4201619;28;5745;-71
2022/06/10 06:00:53;;;;;;;;;;;;;;;19.99;52.35;97552.97;4196190;28;5757;-71
2022/06/10 06:02:58;;;;;;;;;;;;;;;20.05;52.40;97549.38;4208508;28;5624;-71
2022/06/10 06:05:02;;;;;;;;;;;;;;;20.11;52.32;97547.59;4201426;28;5699;-71
2022/06/10 06:07:08;;;;;;;;;;;;;;;20.17;52.05;97557.41;4197120;28;5852;-71
2022/06/10 06:09:14;;;;;;;;;;;;;;;20.25;52.11;97555.16;4201444;28;5628;-71
2022/06/10 06:11:24;;;;;;;;;;;;;;;20.31;51.84;97545.34;4201860;28;5643;-71
2022/06/10 06:13:27;;;;;;;;;;;;;;;20.36;52.01;97551.63;4200923;28;5635;-72
2022/06/10 06:15:30;;;;;;;;;;;;;;;20.36;51.99;97551.63;4186685;28;5663;-72
2022/06/10 06:17:33;;;;;;;;;;;;;;;20.38;52.08;97554.06;4187225;28;5752;-71
2022/06/10 06:19:36;;;;;;;;;;;;;;;20.42;51.95;97565.16;4195061;28;5623;-72
2022/06/10 06:21:39;;;;;;;;;;;;;;;20.41;51.69;97558.16;4200888;28;5699;-72
2022/06/10 06:23:43;;;;;;;;;;;;;;;20.42;51.66;97563.34;4201363;28;5726;-71
2022/06/10 06:25:47;;;;;;;;;;;;;;;20.45;51.99;97559.34;4200851;28;5628;-71
2022/06/10 06:27:50;;;;;;;;;;;;;;;20.43;51.53;97561.47;4200944;28;5641;-71
2022/06/10 06:29:54;;;;;;;;;;;;;;;20.40;51.58;97572.66;4183277;28;5642;-71
2022/06/10 06:31:57;;;;;;;;;;;;;;;20.40;51.57;97561.91;4200791;28;5640;-72
2022/06/10 06:34:00;;;;;;;;;;;;;;;20.44;51.80;97565.78;4201738;28;5644;-72
2022/06/10 06:36:06;;;;;;;;;;;;;;;20.47;51.56;97567.97;4201642;28;5643;-72
2022/06/10 06:38:10;;;;;;;;;;;;;;;20.49;51.65;97572.06;4200232;28;6612;-72
2022/06/10 06:40:14;;;;;;;;;;;;;;;20.50;51.57;97567.50;4201892;28;5917;-72
2022/06/10 06:42:17;;;;;;;;;;;;;;;20.57;51.33;97558.25;4200955;28;5639;-72
2022/06/10 06:44:21;;;;;;;;;;;;;;;20.62;51.04;97555.69;4200854;28;5624;-71
2022/06/10 06:46:24;;;;;;;;;;;;;;;20.59;51.16;97555.34;4201459;28;5627;-72
2022/06/10 06:48:27;;;;;;;;;;;;;;;20.62;51.06;97555.69;4183362;28;5647;-72
2022/06/10 06:50:32;;;;;;;;;;;;;;;20.70;50.99;97548.28;4201499;28;5766;-72
2022/06/10 06:52:35;;;;;;;;;;;;;;;20.75;50.58;97554.59;4200416;28;5624;-72
2022/06/10 06:54:38;;;;;;;;;;;;;;;20.77;50.79;97560.53;4200928;28;5711;-72
2022/06/10 06:56:46;;;;;;;;;;;;;;;20.80;50.55;97557.38;4201025;28;5627;-71
2022/06/10 06:58:49;;;;;;;;;;;;;;;20.82;50.32;97549.88;4201072;28;5632;-71
2022/06/10 07:00:52;;;;;;;;;;;;;;;20.75;50.78;97543.84;4201148;28;5659;-72
2022/06/10 07:02:55;;;;;;;;;;;;;;;20.77;50.34;97552.47;4201120;28;5643;-71
2022/06/10 07:04:58;;;;;;;;;;;;;;;20.82;50.45;97555.25;4199559;28;5715;-72
2022/06/10 07:07:02;;;;;;;;;;;;;;;20.84;50.66;97558.53;4200781;28;5757;-72
2022/06/10 07:09:05;;;;;;;;;;;;;;;20.84;50.34;97557.72;4200675;28;5624;-72
2022/06/10 07:11:09;;;;;;;;;;;;;;;20.69;50.61;97547.47;4200371;28;5719;-72
2022/06/10 07:13:14;;;;;;;;;;;;;;;20.68;50.21;97555.78;4200491;28;5635;-70
2022/06/10 07:15:17;;;;;;;;;;;;;;;20.65;50.26;97565.13;4200890;28;6282;-70
2022/06/10 07:17:20;;;;;;;;;;;;;;;20.59;50.36;97558.03;4195267;28;5825;-71
2022/06/10 07:19:23;;;;;;;;;;;;;;;20.50;50.38;97559.44;4197804;28;5711;-70
2022/06/10 07:21:28;;;;;;;;;;;;;;;20.40;50.43;97567.28;4199147;28;5730;-70
2022/06/10 07:23:31;;;;;;;;;;;;;;;20.35;50.36;97558.03;4200299;28;5655;-70
2022/06/10 07:25:35;;;;;;;;;;;;;;;20.29;50.53;97566.25;4200824;28;5640;-70
2022/06/10 07:27:38;;;;;;;;;;;;;;;20.26;50.40;97566.69;4166256;28;5789;-70
2022/06/10 07:29:42;;;;;;;;;;;;;;;20.23;50.34;97553.75;4186444;28;5667;-70
2022/06/10 07:31:45;;;;;;;;;;;;;;;20.19;50.56;97560.66;4200289;28;5722;-70
2022/06/10 07:33:48;;;;;;;;;;;;;;;20.15;50.66;97559.47;4182137;28;5755;-70
2022/06/10 07:35:52;;;;;;;;;;;;;;;20.03;50.28;97560.31;4199185;28;5659;-70
2022/06/10 07:37:55;;;;;;;;;;;;;;;20.00;50.51;97557.28;4199910;28;5647;-70
2022/06/10 07:39:58;;;;;;;;;;;;;;;19.98;50.10;97560.22;4200912;28;5730;-71
2022/06/10 07:42:01;;;;;;;;;;;;;;;19.96;50.36;97553.44;4199779;28;5631;-70
2022/06/10 07:44:04;;;;;;;;;;;;;;;19.95;50.29;97558.00;4200478;28;5734;-71
2022/06/10 07:46:10;;;;;;;;;;;;;;;19.92;50.40;97554.94;4191379;28;5620;-71
2022/06/10 07:48:15;;;;;;;;;;;;;;;19.92;50.32;97554.94;4200563;28;5743;-71
2022/06/10 07:50:21;;;;;;;;;;;;;;;19.90;50.13;97540.94;4200546;28;5730;-71
2022/06/10 07:52:25;;;;;;;;;;;;;;;19.88;50.26;97549.25;4174747;28;5099;-71
2022/06/10 07:54:28;;;;;;;;;;;;;;;19.85;50.34;97556.94;4184208;28;5740;-71
2022/06/10 07:56:31;;;;;;;;;;;;;;;19.77;50.33;97547.38;4186869;28;5627;-71
2022/06/10 07:58:35;;;;;;;;;;;;;;;19.75;50.04;97546.78;4200475;28;5635;-70
2022/06/10 08:00:38;;;;;;;;;;;;;;;19.74;50.31;97548.66;4200270;28;5647;-70
2022/06/10 08:02:44;;;;;;;;;;;;;;;19.74;50.11;97550.53;4197464;28;5832;-71
2022/06/10 08:04:47;;;;;;;;;;;;;;;19.75;50.01;97554.84;4187410;28;5736;-71
2022/06/10 08:06:51;;;;;;;;;;;;;;;19.73;50.00;97552.41;4189706;28;5103;-71
2022/06/10 08:08:54;;;;;;;;;;;;;;;19.66;49.98;97546.31;4191232;28;5742;-70
2022/06/10 08:10:57;;;;;;;;;;;;;;;19.64;50.17;97545.75;4198824;28;5643;-71
2022/06/10 08:13:01;;;;;;;;;;;;;;;19.64;50.05;97545.75;4199890;28;5783;-71
2022/06/10 08:15:05;;;;;;;;;;;;;;;19.67;49.97;97545.28;4199758;28;5820;-70
2022/06/10 08:17:08;;;;;;;;;;;;;;;19.68;49.90;97543.41;4199585;28;5744;-70
2022/06/10 08:19:13;;;;;;;;;;;;;;;19.70;49.85;97542.09;4200617;28;5726;-71
2022/06/10 08:23:50;;;;;;;;;;;;;;;19.67;49.96;97533.72;4131792;28;5744;-71
2022/06/10 08:25:54;;;;;;;;;;;;;;;19.68;49.48;97538.84;4132676;28;5714;-71
2022/06/10 08:27:57;;;;;;;;;;;;;;;19.71;49.76;97534.91;4132522;28;5706;-70
2022/06/10 08:30:00;;;;;;;;;;;;;;;19.69;49.57;97528.94;4134341;28;5695;-71
2022/06/10 08:32:03;;;;;;;;;;;;;;;19.70;49.70;97535.94;4135802;28;5694;-70
2022/06/10 08:34:07;;;;;;;;;;;;;;;19.67;49.52;97529.16;4135439;28;5650;-70
2022/06/10 08:36:13;;;;;;;;;;;;;;;19.68;49.75;97521.94;4135946;28;5635;-71
2022/06/10 08:38:18;;;;;;;;;;;;;;;19.67;49.68;97521.13;4135430;28;5199;-70
2022/06/10 08:40:30;;;;;;;;;;;;;;;19.65;49.54;97517.88;4135408;28;5811;-71
2022/06/10 08:42:41;;;;;;;;;;;;;;;19.66;49.56;97516.81;4135983;28;5785;-71
2022/06/10 08:44:50;;;;;;;;;;;;;;;19.72;49.62;97518.56;4126865;28;5738;-71
2022/06/10 08:47:23;;;;;;;;;;;;;;;19.72;49.67;97513.22;4135784;28;5730;-70
2022/06/10 08:49:50;;;;;;;;;;;;;;;19.74;49.74;97518.34;4131295;28;6414;-71
2022/06/10 08:52:04;;;;;;;;;;;;;;;19.70;49.79;97526.00;4134839;28;5925;-70
2022/06/10 08:54:15;;;;;;;;;;;;;;;19.67;49.48;97521.13;4151592;28;5700;-70
2022/06/10 08:56:27;;;;;;;;;;;;;;;19.69;49.61;97505.59;4151987;28;5780;-70
2022/06/10 08:58:38;;;;;;;;;;;;;;;19.71;49.73;97508.91;4156067;28;5845;-70
2022/06/10 09:00:45;;;;;;;;;;;;;;;19.69;49.70;97510.16;4175172;28;5707;-70
2022/06/10 09:02:55;;;;;;;;;;;;;;;19.70;49.44;97509.91;4186656;28;5830;-70
2022/06/10 09:05:04;;;;;;;;;;;;;;;19.66;49.60;97507.94;4186289;28;5727;-70
2022/06/10 09:07:13;;;;;;;;;;;;;;;19.67;49.60;97510.41;4186475;28;5711;-70
2022/06/10 09:09:19;;;;;;;;;;;;;;;19.70;49.79;97509.09;4186405;28;5751;-71
2022/06/10 09:11:28;;;;;;;;;;;;;;;19.74;49.51;97511.09;4186816;28;5771;-70
2022/06/10 09:13:38;;;;;;;;;;;;;;;19.80;49.48;97513.88;4186286;28;5779;-70
2022/06/10 09:15:46;;;;;;;;;;;;;;;19.82;49.71;97509.09;4184192;28;5860;-70
2022/06/10 09:17:55;;;;;;;;;;;;;;;19.84;49.51;97507.03;4186551;28;5715;-71
2022/06/10 09:20:06;;;;;;;;;;;;;;;19.85;49.50;97511.34;4186038;28;5727;-70
2022/06/10 09:22:16;;;;;;;;;;;;;;;19.84;49.75;97510.53;4186778;28;5756;-74
2022/06/10 09:24:27;;;;;;;;;;;;;;;19.85;49.57;97504.09;4185604;28;5843;-74
2022/06/10 09:26:36;;;;;;;;;;;;;;;19.90;49.75;97511.44;4182150;28;5814;-68
2022/06/10 09:28:42;;;;;;;;;;;;;;;19.95;49.59;97509.69;4169544;28;5755;-68
2022/06/10 09:30:51;;;;;;;;;;;;;;;19.96;49.49;97514.00;4179799;28;6291;-68
2022/06/10 09:33:00;;;;;;;;;;;;;;;19.95;49.62;97515.06;4186524;28;5723;-68
2022/06/10 09:35:12;;;;;;;;;;;;;;;19.96;49.72;97510.50;4184997;28;5839;-68
2022/06/10 09:37:28;;;;;;;;;;;;;;;20.00;49.72;97519.72;4185864;28;5720;-68
2022/06/10 09:42:11;;;;;;;;;;;;;;;20.08;49.74;97510.50;4186128;28;6490;-68
2022/06/10 09:44:23;;;;;;;;;;;;;;;20.12;49.68;97507.09;4178242;28;5686;-68
2022/06/10 09:47:00;;;;;;;;;;;;;;;20.15;49.77;97514.66;4180783;28;5699;-68
2022/06/10 09:49:21;;;;;;;;;;;;;;;20.18;49.84;97516.91;4170222;28;5839;-68
2022/06/10 09:51:34;;;;;;;;;;;;;;;20.17;49.82;97512.56;4185737;28;5712;-68
2022/06/10 09:53:55;;;;;;;;;;;;;;;20.16;49.81;97510.94;4197495;28;5632;-68
2022/06/10 09:56:26;;;;;;;;;;;;;;;20.18;49.72;97505.34;4201608;28;5656;-68
2022/06/10 09:58:58;;;;;;;;;;;;;;;20.21;49.78;97499.50;4202497;28;5631;-68
2022/06/10 10:01:11;;;;;;;;;;;;;;;20.25;50.05;97506.00;4186016;28;5643;-68
2022/06/10 10:03:33;;;;;;;;;;;;;;;20.26;50.02;97505.75;4202363;28;5624;-68
2022/06/10 10:05:59;;;;;;;;;;;;;;;20.25;50.09;97506.00;4200909;28;5744;-68
2022/06/10 10:08:11;;;;;;;;;;;;;;;20.22;50.26;97499.25;4184062;28;5717;-68
2022/06/10 10:10:34;;;;;;;;;;;;;;;20.23;50.18;97500.88;4201466;28;6817;-68
2022/06/10 10:12:49;;;;;;;;;;;;;;;20.25;50.06;97495.25;4201956;28;6441;-68
2022/06/10 10:15:01;;;;;;;;;;;;;;;20.31;50.35;97494.34;4200737;28;5699;-68
2022/06/10 10:17:26;;;;;;;;;;;;;;;20.34;50.30;97489.28;4184081;28;5650;-68
2022/06/10 10:19:47;;;;;;;;;;;;;;;20.36;50.05;97481.81;4183918;28;5903;-68
2022/06/10 10:22:00;;;;;;;;;;;;;;;20.36;50.30;97487.19;4201458;28;5734;-68
2022/06/10 10:24:08;;;;;;;;;;;;;;;20.38;50.10;97495.00;4202084;28;5687;-68
2022/06/10 10:26:21;;;;;;;;;;;;;;;20.38;50.37;97470.81;4201878;28;5490;-68
2022/06/10 10:28:28;;;;;;;;;;;;;;;20.41;50.53;97485.66;4201811;28;7700;-68
2022/06/10 10:30:36;;;;;;;;;;;;;;;20.44;50.35;97487.91;4190877;28;5639;-68
2022/06/10 10:32:44;;;;;;;;;;;;;;;20.47;50.10;97480.16;4185473;28;5667;-68
2022/06/10 10:34:53;;;;;;;;;;;;;;;20.47;50.05;97487.41;4201749;28;5612;-68
2022/06/10 10:36:59;;;;;;;;;;;;;;;20.50;50.26;97497.66;4182687;28;5647;-68
2022/06/10 10:39:14;;;;;;;;;;;;;;;20.52;50.42;97487.53;4185194;28;5760;-68
2022/06/10 10:41:28;;;;;;;;;;;;;;;20.52;50.35;97479.47;4185175;28;5717;-68
2022/06/10 10:43:52;;;;;;;;;;;;;;;20.52;50.54;97487.53;4189640;28;6670;-68
2022/06/10 10:45:58;;;;;;;;;;;;;;;20.53;50.60;97486.47;4201292;28;5699;-68
2022/06/10 10:48:14;;;;;;;;;;;;;;;20.59;50.58;97494.38;4201048;28;5899;-68
2022/06/10 10:50:22;;;;;;;;;;;;;;;20.67;50.44;97498.56;4201437;28;5623;-68
2022/06/10 10:52:40;;;;;;;;;;;;;;;20.70;50.12;97492.69;4182750;28;5658;-68
2022/06/10 10:54:45;;;;;;;;;;;;;;;20.71;50.27;97485.44;4175247;28;5727;-68
2022/06/10 10:56:51;;;;;;;;;;;;;;;20.74;50.46;97493.03;4184631;28;5708;-68
2022/06/10 10:58:55;;;;;;;;;;;;;;;20.75;50.27;97489.28;4183936;28;5836;-68
2022/06/10 11:01:02;;;;;;;;;;;;;;;20.75;49.86;97490.09;4184879;28;5726;-68
2022/06/10 11:03:05;;;;;;;;;;;;;;;20.78;50.05;97499.56;4183853;28;5731;-68
2022/06/10 11:05:22;;;;;;;;;;;;;;;20.82;49.95;97490.75;4183902;28;5813;-68
2022/06/10 11:07:26;;;;;;;;;;;;;;;20.84;50.38;97494.03;4182262;28;5761;-68
2022/06/10 11:09:31;;;;;;;;;;;;;;;20.84;50.29;97499.41;4184489;28;5708;-70
2022/06/10 11:11:37;;;;;;;;;;;;;;;20.86;50.24;97491.94;4184227;28;5790;-71
2022/06/10 11:13:50;;;;;;;;;;;;;;;20.88;50.15;97495.19;4183259;28;5783;-70
2022/06/10 11:15:54;;;;;;;;;;;;;;;20.92;50.37;97506.25;4184904;28;5782;-71
2022/06/10 11:17:59;;;;;;;;;;;;;;;20.94;50.23;97498.75;4184790;28;5763;-71
2022/06/10 11:20:17;;;;;;;;;;;;;;;20.93;50.06;97494.44;4184638;28;5704;-71
2022/06/10 11:22:30;;;;;;;;;;;;;;;20.97;50.03;97506.34;4184198;28;6430;-71
2022/06/10 11:24:42;;;;;;;;;;;;;;;21.06;50.23;97491.44;4183014;28;5662;-70
2022/06/10 11:26:50;;;;;;;;;;;;;;;21.20;49.98;97494.66;4183024;28;5375;-70
2022/06/10 11:29:02;;;;;;;;;;;;;;;21.25;49.66;97488.53;4184226;28;5715;-70
2022/06/10 11:31:17;;;;;;;;;;;;;;;21.28;50.18;97491.56;4184395;28;5810;-71
2022/06/10 11:33:26;;;;;;;;;;;;;;;21.33;50.12;97498.91;4182908;28;5653;-71
2022/06/10 11:35:33;;;;;;;;;;;;;;;21.31;49.97;97485.72;4184577;28;5707;-70
2022/06/10 11:37:40;;;;;;;;;;;;;;;21.33;50.14;97490.84;4184147;28;5806;-71
2022/06/10 11:39:50;;;;;;;;;;;;;;;21.36;50.30;97483.09;4184101;28;5759;-70
2022/06/10 11:42:08;;;;;;;;;;;;;;;21.40;50.16;97491.47;4184542;28;5044;-71
2022/06/10 11:44:19;;;;;;;;;;;;;;;21.39;50.42;97497.94;4183759;28;5720;-70
2022/06/10 11:46:28;;;;;;;;;;;;;;;21.39;50.38;97484.47;4184342;28;5805;-71
2022/06/10 11:48:39;;;;;;;;;;;;;;;21.39;50.01;97481.78;4184294;28;5708;-71
2022/06/10 11:50:53;;;;;;;;;;;;;;;21.40;50.00;97476.16;4184137;28;5814;-71
2022/06/10 11:53:02;;;;;;;;;;;;;;;21.43;49.79;97473.00;4190089;28;5632;-70
2022/06/10 11:55:14;;;;;;;;;;;;;;;21.47;49.92;97479.50;4200618;28;5785;-70
2022/06/10 11:59:52;;;;;;;;;;;;;;;21.50;49.50;97472.81;4200491;28;5096;-71
2022/06/10 12:01:56;;;;;;;;;;;;;;;21.50;49.45;97476.31;4182734;28;5828;-70
2022/06/10 12:04:04;;;;;;;;;;;;;;;21.51;49.27;97479.81;4201257;28;5628;-71
2022/06/10 12:06:12;;;;;;;;;;;;;;;21.51;49.23;97475.25;4204076;28;5627;-71
2022/06/10 12:08:24;;;;;;;;;;;;;;;21.51;49.21;97469.88;4204079;28;5687;-70
2022/06/10 12:10:31;;;;;;;;;;;;;;;21.53;49.37;97458.09;4204212;28;5794;-70
2022/06/10 12:12:39;;;;;;;;;;;;;;;21.56;49.76;97457.56;4203799;28;5675;-70
2022/06/10 12:14:46;;;;;;;;;;;;;;;21.60;49.83;97447.94;4202741;28;5707;-71
2022/06/10 12:16:55;;;;;;;;;;;;;;;21.63;49.63;97456.34;4203339;28;5627;-71
2022/06/10 12:19:04;;;;;;;;;;;;;;;21.68;49.75;97455.59;4202549;28;5628;-71
2022/06/10 12:21:07;;;;;;;;;;;;;;;21.72;49.85;97452.16;4203662;28;5639;-71
2022/06/10 12:23:14;;;;;;;;;;;;;;;21.75;49.81;97446.31;4203966;28;5635;-71
2022/06/10 12:25:21;;;;;;;;;;;;;;;21.79;49.79;97446.59;4185512;28;5666;-71
2022/06/10 12:27:32;;;;;;;;;;;;;;;21.83;49.57;97450.41;4203680;28;5624;-71
2022/06/10 12:29:42;;;;;;;;;;;;;;;21.88;49.57;97442.44;4203242;28;5631;-71
2022/06/10 12:31:53;;;;;;;;;;;;;;;21.85;49.21;97445.59;4204150;28;5635;-71
2022/06/10 12:34:02;;;;;;;;;;;;;;;21.83;49.41;97441.53;4203777;28;6405;-72
2022/06/10 12:36:09;;;;;;;;;;;;;;;21.80;49.43;97435.59;4202358;28;5640;-71
2022/06/10 12:38:20;;;;;;;;;;;;;;;21.81;49.66;97439.09;4203348;28;5624;-70
2022/06/10 12:40:28;;;;;;;;;;;;;;;21.85;49.18;97445.59;4185640;28;6463;-71
2022/06/10 12:42:40;;;;;;;;;;;;;;;21.91;49.09;97443.78;4203528;28;5631;-70
2022/06/10 12:44:51;;;;;;;;;;;;;;;21.95;49.18;97431.44;4201688;28;6935;-70
2022/06/10 12:47:00;;;;;;;;;;;;;;;22.01;48.86;97430.47;4203271;28;5619;-71
2022/06/10 12:49:10;;;;;;;;;;;;;;;22.04;48.42;97430.78;4202805;28;5631;-71
2022/06/10 12:51:29;;;;;;;;;;;;;;;22.12;48.13;97432.25;4202847;28;5636;-70
2022/06/10 12:53:43;;;;;;;;;;;;;;;22.19;48.10;97421.28;4185207;28;5663;-71
2022/06/10 12:55:49;;;;;;;;;;;;;;;22.23;48.26;97419.72;4186361;28;5810;-70
2022/06/10 12:57:54;;;;;;;;;;;;;;;22.26;48.25;97421.91;4186757;28;5704;-70
2022/06/10 13:00:41;;;;;;;;;;;;;;;22.29;47.71;97413.31;4185661;28;5794;-70
2022/06/10 13:02:49;;;;;;;;;;;;;;;22.28;47.96;97415.19;4186441;28;5728;-70
2022/06/10 13:04:59;;;;;;;;;;;;;;;22.25;47.91;97420.28;4186108;28;5942;-71
2022/06/10 13:07:04;;;;;;;;;;;;;;;22.19;48.26;97430.16;4185230;28;5819;-70
2022/06/10 13:09:23;;;;;;;;;;;;;;;22.17;48.13;97424.22;4186184;28;5796;-71
2022/06/10 13:11:34;;;;;;;;;;;;;;;22.19;48.12;97418.56;4184834;28;5774;-71
2022/06/10 13:13:39;;;;;;;;;;;;;;;22.21;47.91;97411.09;4181334;28;6206;-70
2022/06/10 13:15:43;;;;;;;;;;;;;;;22.21;47.96;97411.09;4181200;28;5724;-70
2022/06/10 13:18:03;;;;;;;;;;;;;;;22.21;47.56;97411.91;4179098;28;5775;-70
2022/06/10 13:20:27;;;;;;;;;;;;;;;22.26;47.64;97413.81;4175624;28;5779;-70
2022/06/10 13:22:34;;;;;;;;;;;;;;;22.28;47.46;97403.59;4186144;28;7380;-70
2022/06/10 13:24:38;;;;;;;;;;;;;;;22.26;47.37;97408.44;4185139;28;5828;-70
2022/06/10 13:26:42;;;;;;;;;;;;;;;22.26;47.42;97401.16;4185976;28;5840;-70
2022/06/10 13:28:47;;;;;;;;;;;;;;;22.29;47.42;97397.16;4186213;28;5720;-71
2022/06/10 13:30:51;;;;;;;;;;;;;;;22.30;47.76;97396.88;4180438;28;5850;-71
2022/06/10 13:33:05;;;;;;;;;;;;;;;22.27;47.65;97392.03;4176960;28;7726;-72
2022/06/10 13:35:16;;;;;;;;;;;;;;;22.24;47.62;97391.72;4182965;28;5714;-70
2022/06/10 13:37:23;;;;;;;;;;;;;;;22.25;47.64;97396.03;4185980;28;5708;-71
2022/06/10 13:39:29;;;;;;;;;;;;;;;22.29;47.11;97397.16;4185883;28;5723;-70
2022/06/10 13:41:52;;;;;;;;;;;;;;;22.32;47.58;97396.66;4185160;28;5712;-72
2022/06/10 13:44:03;;;;;;;;;;;;;;;22.37;47.42;97394.00;4185145;28;5724;-72
2022/06/10 13:46:06;;;;;;;;;;;;;;;22.36;47.10;97387.00;4178996;28;5741;-69
2022/06/10 13:48:15;;;;;;;;;;;;;;;22.36;47.51;97387.81;4185088;28;5712;-70
2022/06/10 13:50:27;;;;;;;;;;;;;;;22.36;47.33;97393.19;4183596;28;6355;-71
2022/06/10 13:52:33;;;;;;;;;;;;;;;22.41;47.34;97397.81;4188154;28;5885;-71
2022/06/10 13:54:36;;;;;;;;;;;;;;;22.43;47.23;97401.09;4202305;28;5627;-71
2022/06/10 13:56:42;;;;;;;;;;;;;;;22.38;47.16;97391.06;4192235;28;5794;-71
2022/06/10 13:58:53;;;;;;;;;;;;;;;22.39;46.96;97394.56;4198357;28;5635;-68
2022/06/10 14:00:59;;;;;;;;;;;;;;;22.39;47.21;97386.47;4194762;28;5767;-71
2022/06/10 14:03:04;;;;;;;;;;;;;;;22.39;47.04;97386.47;4176466;28;5877;-71
2022/06/10 14:05:18;;;;;;;;;;;;;;;22.44;47.14;97399.22;4187758;28;5722;-71
2022/06/10 14:07:26;;;;;;;;;;;;;;;22.44;47.00;97388.44;4175717;28;5972;-70
2022/06/10 14:09:32;;;;;;;;;;;;;;;22.41;46.59;97387.03;4184302;28;5822;-71
2022/06/10 14:11:37;;;;;;;;;;;;;;;22.40;46.86;97382.72;4182654;28;5738;-70
2022/06/10 14:13:50;;;;;;;;;;;;;;;22.45;46.40;97390.06;4188230;28;5770;-70
2022/06/10 14:15:55;;;;;;;;;;;;;;;22.44;46.38;97389.25;4180550;28;5931;-70
2022/06/10 14:18:00;;;;;;;;;;;;;;;22.44;46.64;97383.84;4199199;28;5798;-71
2022/06/10 14:20:04;;;;;;;;;;;;;;;22.44;46.64;97383.03;4198133;28;6361;-70
2022/06/10 14:22:18;;;;;;;;;;;;;;;22.48;46.16;97384.16;4199060;28;5725;-70
2022/06/10 14:24:24;;;;;;;;;;;;;;;22.50;46.35;97377.44;4198683;28;5793;-71
2022/06/10 14:26:27;;;;;;;;;;;;;;;22.54;46.34;97378.56;4182424;28;5769;-71
2022/06/10 14:28:31;;;;;;;;;;;;;;;22.57;46.14;97380.75;4198698;28;5730;-71
2022/06/10 14:30:49;;;;;;;;;;;;;;;22.75;45.58;97379.53;4196902;28;5734;-71
2022/06/10 14:32:57;;;;;;;;;;;;;;;22.82;45.91;97371.25;4195349;28;5800;-70
2022/06/10 14:35:27;;;;;;;;;;;;;;;22.86;45.22;97367.00;4198871;28;5762;-70
2022/06/10 14:37:34;;;;;;;;;;;;;;;22.98;44.96;97359.53;4198471;28;5730;-70
2022/06/10 14:39:37;;;;;;;;;;;;;;;23.03;44.17;97370.38;4198435;28;5726;-70
2022/06/10 14:41:52;;;;;;;;;;;;;;;23.12;44.15;97357.22;4190484;28;5806;-71
2022/06/10 14:44:16;;;;;;;;;;;;;;;23.15;43.70;97357.50;4198132;28;5805;-71
2022/06/10 14:46:27;;;;;;;;;;;;;;;23.27;43.75;97375.38;4107920;28;5737;-72
2022/06/10 14:48:33;;;;;;;;;;;;;;;23.36;43.25;97365.75;4113546;28;5742;-72
2022/06/10 14:50:38;;;;;;;;;;;;;;;23.34;43.37;97360.59;4113671;28;5741;-71
2022/06/10 14:52:46;;;;;;;;;;;;;;;23.42;42.82;97368.19;4114130;28;5789;-71
2022/06/10 14:54:49;;;;;;;;;;;;;;;23.49;42.05;97357.97;4110056;28;6062;-71
2022/06/10 14:56:53;;;;;;;;;;;;;;;23.57;41.92;97359.38;4106354;28;6582;-71
2022/06/10 14:58:57;;;;;;;;;;;;;;;23.58;41.75;97361.03;4106153;28;5104;-71
2022/06/10 15:01:00;;;;;;;;;;;;;;;23.56;42.14;97351.53;4082073;29;5783;-71
2022/06/10 15:03:10;;;;;;;;;;;;;;;23.52;41.70;97351.25;4111788;28;5941;-71
2022/06/10 15:07:48;;;;;;;;;;;;;;;23.49;42.03;97352.59;4050699;29;6002;-71
2022/06/10 15:09:52;;;;;;;;;;;;;;;23.53;41.45;97350.97;4050782;29;6031;-71
2022/06/10 15:11:57;;;;;;;;;;;;;;;23.59;41.52;97356.44;4050239;29;6028;-71
2022/06/10 15:14:00;;;;;;;;;;;;;;;23.65;40.87;97361.59;4050542;29;6057;-72
2022/06/10 15:16:03;;;;;;;;;;;;;;;23.75;41.11;97347.34;4048401;29;6006;-65
2022/06/10 15:18:09;;;;;;;;;;;;;;;23.80;40.81;97358.16;4049540;29;6014;-65
2022/06/10 15:20:14;;;;;;;;;;;;;;;23.82;40.57;97345.22;4050483;29;6006;-65